Time;durP1;ratioP1;P1;durP2;ratioP2;P2;SDS_P1;SDS_P2;PMS_P1;PMS_P2;Temp;Humidity;BMP_temperature;BMP_pressure;BME280_temperature;BME280_humidity;BME280_pressure;Samples;Min_cycle;Max_cycle;Signal;HPM_P1;HPM_P2
2023/11/11 00:01:37;;;;;;;;;28.67;27.67;;;;;8.19;100.00;98214.66;6309588;20;3580462;-43
2023/11/11 00:04:06;;;;;;;;;35.33;31.00;;;;;7.74;100.00;98208.22;6314535;20;3599209;-45
2023/11/11 00:06:35;;;;;;;;;31.00;29.50;;;;;8.13;100.00;98207.91;6280842;20;2849456;-53
2023/11/11 00:09:05;;;;;;;;;35.67;29.67;;;;;8.28;100.00;98215.75;6281533;20;3612764;-41
2023/11/11 00:11:35;;;;;;;;;38.00;33.67;;;;;8.34;100.00;98213.47;6314886;20;3625261;-42
2023/11/11 00:14:04;;;;;;;;;34.33;29.00;;;;;8.30;100.00;98214.69;6284489;20;3590906;-42
2023/11/11 00:16:33;;;;;;;;;31.33;29.33;;;;;8.14;100.00;98206.97;6278172;20;2862797;-42
2023/11/11 00:19:03;;;;;;;;;30.50;29.00;;;;;7.55;100.00;98204.22;6311701;20;2836746;-41
2023/11/11 00:21:33;;;;;;;;;30.00;27.50;;;;;7.64;100.00;98200.06;6279917;20;2841320;-41
2023/11/11 00:24:02;;;;;;;;;30.50;27.00;;;;;7.99;100.00;98199.25;6282023;20;2856542;-42
2023/11/11 00:26:31;;;;;;;;;36.00;29.00;;;;;8.13;100.00;98194.53;6281578;20;2860701;-42
2023/11/11 00:29:02;;;;;;;;;30.67;26.67;;;;;7.54;100.00;98189.19;6281098;20;2853611;-41
2023/11/11 00:31:33;;;;;;;;;35.00;31.00;;;;;7.65;100.00;98188.38;6311669;20;3612775;-42
2023/11/11 00:34:02;;;;;;;;;33.50;32.00;;;;;7.50;100.00;98184.16;6310266;20;2859706;-42
2023/11/11 00:36:39;;;;;;;;;34.00;31.33;;;;;7.64;100.00;98192.88;6281299;20;2859653;-40
2023/11/11 00:39:11;;;;;;;;;33.50;27.00;;;;;8.20;100.00;98204.81;6309599;20;2851845;-43
2023/11/11 00:41:42;;;;;;;;;33.00;28.00;;;;;8.27;100.00;98195.34;6278497;20;2852441;-42
2023/11/11 00:44:11;;;;;;;;;34.50;28.50;;;;;8.33;100.00;98184.19;6277623;20;2847152;-40
2023/11/11 00:46:41;;;;;;;;;25.00;25.00;;;;;8.24;100.00;98188.41;6278496;20;2835750;-40
2023/11/11 00:49:10;;;;;;;;;26.00;24.00;;;;;8.27;100.00;98182.84;6279742;20;2858706;-40
2023/11/11 00:51:40;;;;;;;;;27.00;26.50;;;;;8.28;100.00;98181.00;6280192;20;2852448;-40
2023/11/11 00:54:09;;;;;;;;;29.50;26.00;;;;;8.30;100.00;98184.41;6280456;20;2849352;-41
2023/11/11 00:56:39;;;;;;;;;27.50;25.00;;;;;8.33;100.00;98190.38;6278855;20;2845100;-42
2023/11/11 00:59:10;;;;;;;;;34.00;29.00;;;;;8.40;100.00;98188.13;6279768;20;2863472;-41
2023/11/11 01:01:39;;;;;;;;;30.50;27.50;;;;;8.20;100.00;98188.75;6308798;20;2846149;-41
2023/11/11 01:04:09;;;;;;;;;38.33;30.67;;;;;8.28;100.00;98192.53;6280353;20;2866061;-40
2023/11/11 01:06:39;;;;;;;;;34.00;28.67;;;;;7.96;100.00;98196.81;6309160;20;2858659;-40
2023/11/11 01:09:07;;;;;;;;;28.50;26.00;;;;;8.01;100.00;98194.66;6309987;20;2859663;-40
2023/11/11 01:11:38;;;;;;;;;35.67;28.33;;;;;8.14;100.00;98187.41;6279119;20;2863823;-40
2023/11/11 01:14:08;;;;;;;;;35.67;27.67;;;;;8.11;100.00;98177.81;6311225;20;3616991;-42
2023/11/11 01:16:37;;;;;;;;;35.33;31.67;;;;;8.15;100.00;98170.38;6313772;20;3605480;-41
2023/11/11 01:19:07;;;;;;;;;32.00;30.00;;;;;8.23;100.00;98175.16;6281510;20;3616938;-40
2023/11/11 01:21:37;;;;;;;;;42.00;29.00;;;;;8.22;100.00;98168.97;6310244;20;3618130;-43
2023/11/11 01:24:07;;;;;;;;;39.00;34.00;;;;;8.19;100.00;98169.19;6315752;20;3620077;-41
2023/11/11 01:26:37;;;;;;;;;32.67;30.00;;;;;8.20;100.00;98173.56;6280436;20;2845102;-40
2023/11/11 01:29:06;;;;;;;;;37.00;34.00;;;;;8.19;100.00;98171.00;6308560;20;2851293;-40
2023/11/11 01:31:35;;;;;;;;;35.67;34.00;;;;;8.22;100.00;98173.47;6277753;20;2853417;-41
2023/11/11 01:34:06;;;;;;;;;40.33;34.67;;;;;7.90;100.00;98166.06;6310325;20;3596288;-42
2023/11/11 01:36:35;;;;;;;;;46.00;35.33;;;;;7.70;100.00;98165.72;6278478;20;3609599;-41
2023/11/11 01:39:05;;;;;;;;;37.00;34.67;;;;;8.10;100.00;98169.88;6311542;20;3573282;-40
2023/11/11 01:41:34;;;;;;;;;36.00;31.00;;;;;7.86;100.00;98169.91;6311286;20;2869109;-40
2023/11/11 01:44:04;;;;;;;;;42.00;35.67;;;;;8.10;100.00;98170.72;6275442;20;2841028;-40
2023/11/11 01:46:33;;;;;;;;;47.67;36.00;;;;;8.28;100.00;98167.63;6311067;20;3597148;-44
2023/11/11 01:49:03;;;;;;;;;42.33;34.00;;;;;8.29;100.00;98163.97;6272607;20;3628400;-46
2023/11/11 01:51:32;;;;;;;;;40.00;35.00;;;;;7.93;100.00;98149.78;6306954;20;2856624;-46
2023/11/11 01:54:02;;;;;;;;;36.00;32.67;;;;;7.68;100.00;98138.25;6279793;20;2859690;-47
2023/11/11 01:56:32;;;;;;;;;43.33;35.67;;;;;8.07;100.00;98146.06;6308248;20;2853375;-46
2023/11/11 01:59:02;;;;;;;;;47.33;36.00;;;;;7.88;100.00;98146.63;6309450;20;3596095;-46
2023/11/11 02:01:31;;;;;;;;;44.50;36.00;;;;;7.94;100.00;98148.81;6272115;20;2844130;-46
2023/11/11 02:04:00;;;;;;;;;35.33;34.00;;;;;8.20;100.00;98141.47;6275570;20;2857602;-47
2023/11/11 02:06:31;;;;;;;;;47.67;36.33;;;;;7.79;100.00;98142.78;6310781;20;2862783;-45
2023/11/11 02:09:00;;;;;;;;;42.00;37.00;;;;;8.17;100.00;98151.56;6308257;20;3567031;-45
2023/11/11 02:11:31;;;;;;;;;51.33;36.00;;;;;8.00;100.00;98145.66;6306823;20;3616945;-46
2023/11/11 02:14:02;;;;;;;;;39.00;35.00;;;;;8.30;100.00;98147.81;6311743;20;3614899;-45
2023/11/11 02:16:34;;;;;;;;;42.67;36.00;;;;;8.28;100.00;98140.91;6278592;20;3601467;-43
2023/11/11 02:19:03;;;;;;;;;46.00;35.67;;;;;8.21;100.00;98137.81;6306384;20;3604407;-44
2023/11/11 02:21:32;;;;;;;;;38.00;34.00;;;;;8.17;100.00;98135.53;6309360;20;2844038;-47
2023/11/11 02:24:05;;;;;;;;;40.00;32.67;;;;;8.17;100.00;98124.84;6279331;20;3623279;-46
2023/11/11 02:26:35;;;;;;;;;40.33;33.67;;;;;8.06;100.00;98129.19;6308137;20;2870233;-48
2023/11/11 02:29:04;;;;;;;;;36.33;33.00;;;;;8.00;100.00;98128.78;6309928;20;3583581;-46
2023/11/11 02:31:34;;;;;;;;;47.00;35.00;;;;;8.06;100.00;98123.84;6308626;20;2855567;-46
2023/11/11 02:34:03;;;;;;;;;44.00;35.33;;;;;8.29;100.00;98130.09;6313290;20;3614928;-46
2023/11/11 02:36:33;;;;;;;;;38.33;34.67;;;;;8.31;100.00;98129.97;6279589;20;2853441;-40
2023/11/11 02:39:04;;;;;;;;;36.67;31.00;;;;;8.26;100.00;98129.47;6309289;20;2855640;-42
2023/11/11 02:41:33;;;;;;;;;41.67;33.67;;;;;8.27;100.00;98124.00;6313878;20;3615887;-42
2023/11/11 02:44:02;;;;;;;;;38.50;36.00;;;;;8.29;100.00;98130.09;6277524;20;2856549;-41
2023/11/11 02:46:32;;;;;;;;;42.00;35.00;;;;;8.45;100.00;98135.13;6276867;20;2865021;-46
2023/11/11 02:49:04;;;;;;;;;36.00;28.67;;;;;8.37;100.00;98132.16;6303595;20;3597165;-41
2023/11/11 02:51:34;;;;;;;;;42.67;34.00;;;;;8.32;100.00;98131.66;6306860;20;2860813;-42
2023/11/11 02:54:03;;;;;;;;;43.67;35.00;;;;;8.28;100.00;98138.22;6311867;20;3597242;-51
2023/11/11 02:56:32;;;;;;;;;50.00;39.00;;;;;8.28;100.00;98133.72;6276114;20;2702378;-56
2023/11/11 02:59:02;;;;;;;;;39.67;35.67;;;;;8.30;100.00;98136.28;6306290;20;2856812;-56
2023/11/11 03:01:37;;;;;;;;;31.00;28.00;;;;;8.24;100.00;98136.75;6309181;20;2847189;-54
2023/11/11 03:04:07;;;;;;;;;45.33;36.00;;;;;8.21;100.00;98139.66;6278082;20;2873386;-54
2023/11/11 03:06:42;;;;;;;;;41.33;34.33;;;;;8.21;100.00;98131.63;6311765;20;3610757;-46
2023/11/11 03:09:12;;;;;;;;;48.33;36.33;;;;;8.15;100.00;98127.63;6312431;20;3618112;-46
2023/11/11 03:11:41;;;;;;;;;43.00;34.33;;;;;8.28;100.00;98127.53;6317176;20;3616949;-44
2023/11/11 03:14:10;;;;;;;;;30.33;22.00;;;;;8.25;100.00;98122.41;6281312;20;2855605;-48
2023/11/11 03:16:40;;;;;;;;;41.33;34.00;;;;;8.05;100.00;98123.94;6313709;20;3606550;-45
2023/11/11 03:19:10;;;;;;;;;38.33;36.00;;;;;8.13;100.00;98127.72;6283052;20;2850322;-46
2023/11/11 03:21:39;;;;;;;;;36.00;33.33;;;;;8.32;100.00;98118.28;6315758;20;3608689;-46
2023/11/11 03:24:09;;;;;;;;;47.00;35.33;;;;;8.23;100.00;98124.34;6284447;20;3621076;-47
2023/11/11 03:26:39;;;;;;;;;49.33;39.00;;;;;7.79;100.00;98121.41;6312851;20;2851550;-46
2023/11/11 03:29:09;;;;;;;;;38.67;33.67;;;;;7.90;100.00;98112.63;6311918;20;2867483;-42
2023/11/11 03:31:39;;;;;;;;;38.33;31.33;;;;;8.03;100.00;98116.06;6312611;20;3609609;-44
2023/11/11 03:34:08;;;;;;;;;41.00;34.33;;;;;8.03;100.00;98107.16;6313606;20;2849825;-41
2023/11/11 03:36:41;;;;;;;;;46.33;36.67;;;;;8.17;100.00;98109.63;6314700;20;3596610;-50
2023/11/11 03:39:11;;;;;;;;;42.67;32.33;;;;;8.10;100.00;98103.06;6278519;20;3632569;-51
2023/11/11 03:41:40;;;;;;;;;51.67;39.33;;;;;7.91;100.00;98108.97;6312684;20;2864876;-51
2023/11/11 03:44:10;;;;;;;;;52.67;39.33;;;;;8.01;100.00;98099.28;6313340;20;3613806;-46
2023/11/11 03:46:40;;;;;;;;;48.00;38.00;;;;;8.12;100.00;98096.63;6313127;20;2860708;-45
2023/11/11 03:49:09;;;;;;;;;42.00;34.00;;;;;8.02;100.00;98095.63;6312060;20;3627416;-44
2023/11/11 03:51:39;;;;;;;;;50.33;37.00;;;;;8.16;100.00;98094.56;6313009;20;3610677;-44
2023/11/11 03:54:09;;;;;;;;;41.00;30.33;;;;;8.05;100.00;98092.72;6312854;20;3632578;-45
2023/11/11 03:56:37;;;;;;;;;39.00;34.00;;;;;8.10;100.00;98085.19;6311946;20;2500700;-45
2023/11/11 03:59:06;;;;;;;;;44.00;35.67;;;;;7.76;100.00;98075.38;6281642;20;2868036;-45
2023/11/11 04:01:36;;;;;;;;;49.67;34.00;;;;;7.99;100.00;98074.47;6311758;20;3618022;-45
2023/11/11 04:04:06;;;;;;;;;48.67;40.33;;;;;8.06;100.00;98074.88;6316121;20;3583689;-51
2023/11/11 04:06:37;;;;;;;;;37.33;30.00;;;;;8.09;100.00;98086.19;6280530;20;3610796;-50
2023/11/11 04:09:07;;;;;;;;;36.00;30.33;;;;;7.98;100.00;98078.13;6310815;20;2861711;-51
2023/11/11 04:11:37;;;;;;;;;34.33;29.67;;;;;7.96;100.00;98076.56;6312175;20;2855586;-50
2023/11/11 04:14:05;;;;;;;;;46.67;36.33;;;;;7.98;100.00;98083.47;6317287;20;3574181;-46
2023/11/11 04:16:35;;;;;;;;;40.00;33.33;;;;;7.92;100.00;98083.94;6281492;20;2868015;-46
2023/11/11 04:19:05;;;;;;;;;36.33;31.33;;;;;8.05;100.00;98073.16;6310499;20;2860754;-48
2023/11/11 04:21:35;;;;;;;;;32.67;28.33;;;;;8.00;100.00;98068.16;6311894;20;2861818;-52
2023/11/11 04:24:05;;;;;;;;;31.67;27.33;;;;;7.60;100.00;98065.84;6311314;20;2862897;-43
2023/11/11 04:26:34;;;;;;;;;33.00;30.00;;;;;7.97;100.00;98065.72;6312802;20;2840898;-48
2023/11/11 04:29:04;;;;;;;;;31.50;27.00;;;;;8.14;100.00;98062.63;6278529;20;2851343;-46
2023/11/11 04:31:33;;;;;;;;;33.00;29.67;;;;;8.15;100.00;98063.47;6280203;20;2859147;-52
2023/11/11 04:34:03;;;;;;;;;37.50;28.00;;;;;8.08;100.00;98057.75;6310137;20;2869105;-53
2023/11/11 04:36:32;;;;;;;;;30.50;28.00;;;;;8.09;100.00;98048.75;6279834;20;2844568;-52
2023/11/11 04:39:01;;;;;;;;;27.00;27.00;;;;;8.01;100.00;98056.53;6278076;20;2848385;-51
2023/11/11 04:41:31;;;;;;;;;32.67;28.33;;;;;7.56;100.00;98051.06;6280417;20;2857591;-42
2023/11/11 04:44:01;;;;;;;;;43.67;33.67;;;;;7.48;100.00;98050.78;6312518;20;3623336;-52
2023/11/11 04:46:31;;;;;;;;;37.00;31.67;;;;;7.78;100.00;98054.75;6311124;20;3617974;-51
2023/11/11 04:49:00;;;;;;;;;28.00;25.00;;;;;7.98;100.00;98054.09;6312820;20;2845192;-54
2023/11/11 04:51:29;;;;;;;;;32.50;28.00;;;;;7.82;100.00;98051.75;6277684;20;2851318;-53
2023/11/11 04:53:59;;;;;;;;;38.67;30.00;;;;;7.96;100.00;98050.69;6282628;20;2856536;-49
2023/11/11 04:56:28;;;;;;;;;39.00;32.50;;;;;7.39;100.00;98048.78;6311156;20;2863829;-47
2023/11/11 04:58:57;;;;;;;;;29.33;28.67;;;;;7.29;100.00;98045.94;6283558;20;3578454;-46
2023/11/11 05:01:26;;;;;;;;;33.50;26.00;;;;;7.55;100.00;98053.81;6310408;20;2849242;-46
2023/11/11 05:03:56;;;;;;;;;43.33;33.67;;;;;7.22;100.00;98050.91;6281833;20;3634584;-52
2023/11/11 05:06:27;;;;;;;;;35.00;32.00;;;;;7.40;100.00;98055.84;6312373;20;2856541;-50
2023/11/11 05:08:56;;;;;;;;;36.50;30.50;;;;;7.34;100.00;98061.63;6313553;20;2855445;-56
2023/11/11 05:11:26;;;;;;;;;40.33;35.00;;;;;7.61;100.00;98070.25;6279396;20;2872179;-52
2023/11/11 05:13:55;;;;;;;;;39.33;32.00;;;;;7.62;100.00;98071.94;6311885;20;3618998;-55
2023/11/11 05:16:29;;;;;;;;;50.50;40.00;;;;;7.24;100.00;98067.66;6311566;20;2869097;-49
2023/11/11 05:18:59;;;;;;;;;50.67;41.33;;;;;7.63;100.00;98076.31;6279210;20;2850329;-44
2023/11/11 05:21:28;;;;;;;;;43.00;31.00;;;;;7.68;100.00;98076.81;6310794;20;2752341;-54
2023/11/11 05:23:57;;;;;;;;;39.00;34.00;;;;;7.70;100.00;98074.88;6281439;20;3591921;-55
2023/11/11 05:26:27;;;;;;;;;39.50;33.50;;;;;7.78;100.00;98078.81;6275746;20;2500253;-53
2023/11/11 05:28:58;;;;;;;;;44.00;35.33;;;;;7.79;100.00;98077.81;6278064;20;2857673;-53
2023/11/11 05:31:31;;;;;;;;;45.33;36.33;;;;;7.53;100.00;98078.00;6309738;20;3608575;-40
2023/11/11 05:34:01;;;;;;;;;48.33;37.67;;;;;7.78;100.00;98085.00;6312062;20;3598280;-53
2023/11/11 05:36:34;;;;;;;;;47.00;38.00;;;;;7.65;100.00;98081.53;6278235;20;2860855;-49
2023/11/11 05:39:04;;;;;;;;;41.67;32.00;;;;;7.67;100.00;98076.94;6313836;20;3611734;-45
2023/11/11 05:41:34;;;;;;;;;42.33;35.67;;;;;7.66;100.00;98078.78;6276904;20;3607599;-45
2023/11/11 05:44:06;;;;;;;;;45.00;35.67;;;;;7.86;100.00;98082.59;6310218;20;3610749;-45
2023/11/11 05:46:36;;;;;;;;;48.33;38.00;;;;;7.75;100.00;98081.72;6312078;20;2855550;-52
2023/11/11 05:49:06;;;;;;;;;49.67;35.00;;;;;7.85;100.00;98094.25;6307846;20;3617972;-51
2023/11/11 05:51:36;;;;;;;;;43.33;35.33;;;;;7.89;100.00;98094.88;6309839;20;3610648;-46
2023/11/11 05:54:06;;;;;;;;;47.50;37.00;;;;;8.05;100.00;98095.38;6311346;20;2846190;-45
2023/11/11 05:56:37;;;;;;;;;47.67;36.33;;;;;8.05;100.00;98095.38;6276297;20;2864936;-45
2023/11/11 05:59:07;;;;;;;;;37.33;34.67;;;;;7.85;100.00;98093.41;6309010;20;2864930;-51
2023/11/11 06:01:44;;;;;;;;;44.67;34.67;;;;;7.99;100.00;98093.19;6309991;20;3609622;-39
2023/11/11 06:04:14;;;;;;;;;42.50;36.00;;;;;8.10;100.00;98087.88;6278881;20;2854484;-52
2023/11/11 06:06:50;;;;;;;;;46.33;36.33;;;;;7.89;100.00;98093.03;6281437;20;3608581;-52
2023/11/11 06:09:22;;;;;;;;;36.67;32.67;;;;;7.89;100.00;98095.72;6278757;20;2868146;-39
2023/11/11 06:11:52;;;;;;;;;38.00;30.00;;;;;7.95;100.00;98091.72;6304478;20;3609646;-45
2023/11/11 06:14:22;;;;;;;;;74.00;57.00;;;;;8.02;100.00;98089.44;6311019;20;3634731;-50
2023/11/11 06:16:52;;;;;;;;;48.67;36.67;;;;;7.83;100.00;98090.00;6277075;20;2846149;-41
2023/11/11 06:19:23;;;;;;;;;44.50;36.00;;;;;7.86;100.00;98090.59;6309500;20;2835727;-48
2023/11/11 06:21:53;;;;;;;;;36.00;29.33;;;;;7.85;100.00;98094.25;6280246;20;3610701;-48
2023/11/11 06:24:23;;;;;;;;;41.67;34.33;;;;;7.30;100.00;98087.72;6310704;20;2867102;-50
2023/11/11 06:26:52;;;;;;;;;45.67;36.67;;;;;7.29;100.00;98088.66;6309481;20;3612778;-50
2023/11/11 06:29:22;;;;;;;;;41.00;35.33;;;;;7.65;100.00;98095.75;6278278;20;2876367;-41
2023/11/11 06:31:52;;;;;;;;;42.00;34.67;;;;;7.87;100.00;98100.34;6306479;20;2863001;-42
2023/11/11 06:34:21;;;;;;;;;39.00;34.00;;;;;8.04;100.00;98103.53;6305289;20;2851356;-40
2023/11/11 06:36:50;;;;;;;;;47.00;36.00;;;;;8.18;100.00;98105.16;6277567;20;2855520;-41
2023/11/11 06:39:20;;;;;;;;;55.00;39.67;;;;;8.09;100.00;98109.38;6308943;20;3620150;-49
2023/11/11 06:41:50;;;;;;;;;28.50;28.00;;;;;8.21;100.00;98103.06;6305869;20;2847201;-51
2023/11/11 06:44:20;;;;;;;;;45.33;36.00;;;;;8.18;100.00;98099.78;6281497;20;3606484;-44
2023/11/11 06:46:49;;;;;;;;;46.67;35.00;;;;;7.94;100.00;98106.06;6316108;20;3608597;-54
2023/11/11 06:49:19;;;;;;;;;46.33;35.67;;;;;8.10;100.00;98098.56;6281942;20;2862836;-40
2023/11/11 06:51:48;;;;;;;;;48.33;37.00;;;;;7.99;100.00;98103.03;6314094;20;3608598;-52
2023/11/11 06:54:17;;;;;;;;;45.67;38.00;;;;;8.10;100.00;98103.06;6282846;20;2858728;-40
2023/11/11 06:56:47;;;;;;;;;47.33;39.00;;;;;8.21;100.00;98099.56;6312126;20;2851377;-50
2023/11/11 06:59:16;;;;;;;;;50.67;39.00;;;;;8.13;100.00;98103.66;6315006;20;3604482;-48
2023/11/11 07:01:46;;;;;;;;;52.00;40.00;;;;;7.96;100.00;98096.09;6281756;20;2865947;-41
2023/11/11 07:04:17;;;;;;;;;52.33;43.00;;;;;8.23;100.00;98098.47;6316480;20;2859692;-53
2023/11/11 07:06:47;;;;;;;;;54.33;43.00;;;;;7.99;100.00;98093.19;6314385;20;3612878;-51
2023/11/11 07:09:20;;;;;;;;;52.67;37.67;;;;;8.18;100.00;98099.78;6314212;20;2869157;-50
2023/11/11 07:11:50;;;;;;;;;54.33;41.00;;;;;8.23;100.00;98092.28;6311472;20;3615868;-49
2023/11/11 07:14:20;;;;;;;;;60.67;46.67;;;;;8.30;100.00;98099.69;6309522;20;3635647;-41
2023/11/11 07:16:50;;;;;;;;;58.67;46.00;;;;;8.42;100.00;98092.56;6314205;20;3625219;-42
2023/11/11 07:19:20;;;;;;;;;60.00;47.33;;;;;8.52;100.00;98088.19;6311122;20;3614827;-42
2023/11/11 07:21:53;;;;;;;;;70.00;50.33;;;;;8.28;100.00;98084.75;6311141;20;3646147;-42
2023/11/11 07:24:25;;;;;;;;;45.50;40.00;;;;;8.33;100.00;98087.91;6312316;20;2850279;-41
2023/11/11 07:26:54;;;;;;;;;56.00;45.67;;;;;8.30;100.00;98089.00;6283227;20;2867998;-41
2023/11/11 07:29:25;;;;;;;;;46.33;40.00;;;;;8.29;100.00;98097.13;6310905;20;2857604;-42
2023/11/11 07:31:55;;;;;;;;;58.00;45.33;;;;;8.42;100.00;98091.72;6309992;20;3616002;-42
2023/11/11 07:34:25;;;;;;;;;56.00;45.67;;;;;8.51;100.00;98086.50;6312369;20;2868041;-41
2023/11/11 07:36:55;;;;;;;;;59.33;45.67;;;;;8.27;100.00;98085.72;6312180;20;3631644;-48
2023/11/11 07:39:24;;;;;;;;;50.00;39.00;;;;;8.48;100.00;98091.25;6313319;20;2847230;-47
2023/11/11 07:41:54;;;;;;;;;56.00;44.00;;;;;8.47;100.00;98084.19;6277819;20;2877502;-52
2023/11/11 07:44:24;;;;;;;;;56.33;43.33;;;;;8.53;100.00;98081.00;6309347;20;3614901;-48
2023/11/11 07:46:53;;;;;;;;;52.50;43.00;;;;;8.61;100.00;98083.09;6313318;20;2851478;-53
2023/11/11 07:49:22;;;;;;;;;45.50;39.00;;;;;8.55;100.00;98069.22;6281809;20;2832723;-51
2023/11/11 07:51:51;;;;;;;;;49.00;39.00;;;;;8.57;100.00;98083.34;6281100;20;2862785;-48
2023/11/11 07:54:20;;;;;;;;;50.50;41.50;;;;;8.58;100.00;98078.81;6282655;20;2851313;-51
2023/11/11 07:56:50;;;;;;;;;57.00;43.50;;;;;8.63;100.00;98073.13;6279447;20;2870238;-54
2023/11/11 07:59:19;;;;;;;;;46.00;37.00;;;;;8.67;100.00;98070.09;6281396;20;2854547;-52
2023/11/11 08:01:50;;;;;;;;;55.00;40.33;;;;;8.54;100.00;98075.56;6281196;20;2864880;-53
2023/11/11 08:04:20;;;;;;;;;56.50;44.00;;;;;8.56;100.00;98078.97;6313474;20;2866976;-53
2023/11/11 08:06:49;;;;;;;;;43.00;36.00;;;;;8.53;100.00;98073.00;6279904;20;2741967;-41
2023/11/11 08:09:20;;;;;;;;;42.50;37.00;;;;;8.66;100.00;98079.09;6312194;20;2845088;-55
2023/11/11 08:11:50;;;;;;;;;46.67;37.67;;;;;8.47;100.00;98074.31;6279945;20;2860737;-52
2023/11/11 08:14:22;;;;;;;;;50.00;38.00;;;;;9.12;100.00;98066.50;6315129;20;2865997;-51
2023/11/11 08:16:51;;;;;;;;;51.33;40.00;;;;;8.89;100.00;98071.88;6316320;20;3613886;-53
2023/11/11 08:19:19;;;;;;;;;45.00;37.50;;;;;8.84;100.00;98063.38;6275069;20;2495039;-53
2023/11/11 08:21:49;;;;;;;;;54.33;40.67;;;;;8.87;100.00;98059.59;6278197;20;2873335;-52
2023/11/11 08:24:18;;;;;;;;;45.67;38.33;;;;;8.72;100.00;98059.03;6310319;20;2857650;-54
2023/11/11 08:26:48;;;;;;;;;49.67;39.33;;;;;8.83;100.00;98059.00;6310379;20;2857568;-54
2023/11/11 08:29:17;;;;;;;;;40.67;33.67;;;;;8.69;100.00;98059.25;6311297;20;3592034;-52
2023/11/11 08:31:47;;;;;;;;;49.00;38.00;;;;;8.76;100.00;98061.31;6280108;20;2866190;-54
2023/11/11 08:34:17;;;;;;;;;51.00;39.00;;;;;8.77;100.00;98067.53;6309458;20;3607546;-41
2023/11/11 08:36:46;;;;;;;;;35.67;33.00;;;;;8.46;100.00;98069.13;6316988;20;3583629;-40
2023/11/11 08:39:20;;;;;;;;;48.00;39.00;;;;;8.19;100.00;98066.72;6280124;20;2859681;-44
2023/11/11 08:41:52;;;;;;;;;59.33;48.67;;;;;8.70;100.00;98063.63;6282174;20;2869045;-42
2023/11/11 08:44:22;;;;;;;;;48.00;38.00;;;;;8.69;100.00;98072.63;6314883;20;2872412;-40
2023/11/11 08:46:51;;;;;;;;;46.00;37.33;;;;;8.90;100.00;98070.91;6317706;20;3606920;-41
2023/11/11 08:49:20;;;;;;;;;44.00;37.00;;;;;8.91;100.00;98077.97;6283080;20;2870156;-39
2023/11/11 08:51:50;;;;;;;;;47.50;38.00;;;;;8.78;100.00;98071.91;6311550;20;2858621;-40
2023/11/11 08:54:19;;;;;;;;;56.00;44.33;;;;;8.73;100.00;98068.75;6283642;20;3621093;-42
2023/11/11 08:56:49;;;;;;;;;53.00;42.00;;;;;8.77;100.00;98063.03;6312924;20;3622111;-43
2023/11/11 08:59:20;;;;;;;;;57.00;44.67;;;;;8.91;100.00;98072.63;6313020;20;3628390;-52
2023/11/11 09:01:50;;;;;;;;;63.00;49.67;;;;;8.76;100.00;98066.66;6309790;20;2881800;-53
2023/11/11 09:04:20;;;;;;;;;64.33;50.67;;;;;8.65;100.00;98066.66;6308659;20;2873291;-41
2023/11/11 09:06:49;;;;;;;;;50.00;42.00;;;;;8.67;100.00;98066.56;6312483;20;2860699;-42
2023/11/11 09:09:19;;;;;;;;;45.50;38.00;;;;;8.64;100.00;98066.81;6311972;20;2851315;-41
2023/11/11 09:11:49;;;;;;;;;44.00;36.00;;;;;8.74;100.00;98065.06;6279431;20;2858836;-41
2023/11/11 09:14:18;;;;;;;;;46.33;37.67;;;;;8.77;100.00;98068.38;6280189;20;3618035;-40
2023/11/11 09:16:48;;;;;;;;;40.00;35.33;;;;;8.52;100.00;98074.81;6279897;20;2854440;-40
2023/11/11 09:19:17;;;;;;;;;35.33;30.00;;;;;8.65;100.00;98072.03;6315713;20;3613839;-41
2023/11/11 09:21:47;;;;;;;;;39.00;35.00;;;;;8.78;100.00;98071.91;6280940;20;2840004;-41
2023/11/11 09:24:16;;;;;;;;;42.00;37.00;;;;;8.53;100.00;98071.19;6283771;20;2845116;-53
2023/11/11 09:26:46;;;;;;;;;41.00;35.67;;;;;8.69;100.00;98067.28;6279848;20;3611766;-53
2023/11/11 09:29:19;;;;;;;;;44.50;36.50;;;;;8.85;100.00;98061.56;6310067;20;2839920;-55
2023/11/11 09:31:47;;;;;;;;;24.00;21.00;;;;;8.76;100.00;98063.97;6283660;20;2830564;-51
2023/11/11 09:34:16;;;;;;;;;34.00;32.33;;;;;8.82;100.00;98062.66;6281071;20;3610760;-50
2023/11/11 09:36:45;;;;;;;;;40.67;32.00;;;;;8.81;100.00;98063.63;6314807;20;3623415;-40
2023/11/11 09:39:17;;;;;;;;;36.33;32.00;;;;;8.81;100.00;98060.94;6280414;20;3606554;-40
2023/11/11 09:41:46;;;;;;;;;29.50;25.50;;;;;8.71;100.00;98060.81;6311589;20;2850315;-40
2023/11/11 09:44:17;;;;;;;;;31.00;27.00;;;;;8.70;100.00;98055.63;6279559;20;2854520;-40
2023/11/11 09:46:57;;;;;;;;;34.67;31.67;;;;;8.60;100.00;98058.16;6309740;20;3614932;-40
2023/11/11 09:49:27;;;;;;;;;37.33;32.67;;;;;8.71;100.00;98059.97;6279977;20;3606524;-39
2023/11/11 09:51:58;;;;;;;;;43.33;37.00;;;;;8.65;100.00;98060.47;6310586;20;3582622;-39
2023/11/11 09:54:29;;;;;;;;;42.50;35.00;;;;;8.81;100.00;98052.91;6274049;20;2850441;-49
2023/11/11 09:56:59;;;;;;;;;37.00;31.00;;;;;8.73;100.00;98050.84;6278046;20;3613784;-51
2023/11/11 09:59:33;;;;;;;;;32.67;26.67;;;;;8.64;100.00;98054.28;6314375;20;3603375;-50
2023/11/11 10:02:15;;;;;;;;;39.67;33.33;;;;;8.72;100.00;98051.00;6276256;20;3603377;-50
2023/11/11 10:04:45;;;;;;;;;51.00;41.00;;;;;8.72;100.00;98045.66;6310934;20;2853593;-51
2023/11/11 10:07:17;;;;;;;;;51.67;39.67;;;;;8.62;100.00;98044.69;6311419;20;2858768;-46
2023/11/11 10:09:53;;;;;;;;;59.00;46.00;;;;;8.82;100.00;98046.59;6312009;20;2871401;-52
2023/11/11 10:12:25;;;;;;;;;64.00;49.33;;;;;8.80;100.00;98043.19;6308995;20;3628417;-52
2023/11/11 10:14:54;;;;;;;;;50.00;38.50;;;;;8.88;100.00;98034.56;6306502;20;2862737;-54
2023/11/11 10:17:24;;;;;;;;;39.33;34.00;;;;;8.95;100.00;98025.91;6285345;20;3590990;-54
2023/11/11 10:19:59;;;;;;;;;40.67;34.67;;;;;8.85;100.00;98035.66;6283419;20;3601377;-53
2023/11/11 10:22:28;;;;;;;;;44.00;36.00;;;;;8.90;100.00;98032.56;6317313;20;3613843;-54
2023/11/11 10:24:57;;;;;;;;;40.33;33.00;;;;;8.80;100.00;98027.16;6284925;20;2855614;-53
2023/11/11 10:27:28;;;;;;;;;40.00;36.00;;;;;8.72;100.00;98029.59;6319579;20;3580525;-48
2023/11/11 10:30:00;;;;;;;;;49.33;38.33;;;;;8.79;100.00;98023.63;6284566;20;2862197;-50
2023/11/11 10:32:29;;;;;;;;;44.67;38.67;;;;;8.69;100.00;98020.00;6315864;20;2860800;-50
2023/11/11 10:34:58;;;;;;;;;38.67;34.00;;;;;8.63;100.00;98019.63;6318399;20;3588814;-51
2023/11/11 10:37:29;;;;;;;;;37.50;34.50;;;;;8.62;100.00;98013.41;6286339;20;2839933;-48
2023/11/11 10:39:57;;;;;;;;;29.50;23.50;;;;;8.72;100.00;98008.19;6284201;20;2491979;-50
2023/11/11 10:42:27;;;;;;;;;38.00;31.33;;;;;8.72;100.00;98018.88;6284513;20;3613830;-49
2023/11/11 10:44:57;;;;;;;;;53.33;42.67;;;;;8.72;100.00;98011.72;6284874;20;2868130;-48
2023/11/11 10:47:27;;;;;;;;;33.00;32.00;;;;;8.71;100.00;98003.78;6318976;20;3607600;-47
2023/11/11 10:50:00;;;;;;;;;31.67;31.33;;;;;8.86;100.00;98005.22;6285889;20;2852459;-50
2023/11/11 10:52:30;;;;;;;;;38.00;30.33;;;;;8.91;100.00;98010.22;6316780;20;3620124;-47
2023/11/11 10:55:00;;;;;;;;;28.67;27.33;;;;;8.94;100.00;98008.13;6284819;20;3591971;-40
2023/11/11 10:57:31;;;;;;;;;45.00;37.00;;;;;8.97;100.00;98005.19;6278585;20;2706510;-39
2023/11/11 11:00:04;;;;;;;;;39.00;32.00;;;;;8.86;100.00;97999.88;6317914;20;3614843;-40
2023/11/11 11:02:34;;;;;;;;;51.33;39.67;;;;;9.06;100.00;98011.63;6284397;20;3606607;-39
2023/11/11 11:05:09;;;;;;;;;52.67;42.67;;;;;8.74;100.00;98001.75;6286409;20;2864854;-40
2023/11/11 11:07:57;;;;;;;;;36.00;32.00;;;;;8.86;100.00;97997.19;6314183;20;2852478;-51
2023/11/11 11:10:45;;;;;;;;;66.33;50.67;;;;;8.90;100.00;98000.47;6313896;20;3641054;-54
2023/11/11 11:13:18;;;;;;;;;55.00;42.00;;;;;8.89;100.00;98004.13;6313784;20;2871206;-44
2023/11/11 11:15:47;;;;;;;;;45.67;34.67;;;;;8.76;100.00;98004.28;6316100;20;3631636;-44